sensor_id;sensor_type;location;lat;lon;timestamp;pressure;altitude;pressure_sealevel;temperature;humidity
31062;BME280;17724;53.546;9.974;2023-02-15T00:03:48;103065.00;;;4.74;100.00
31062;BME280;17724;53.546;9.974;2023-02-15T00:07:49;103064.09;;;4.99;100.00
31062;BME280;17724;53.546;9.974;2023-02-15T00:11:49;103063.03;;;4.92;100.00
31062;BME280;17724;53.546;9.974;2023-02-15T00:15:50;103053.31;;;4.98;100.00
31062;BME280;17724;53.546;9.974;2023-02-15T00:19:50;103059.16;;;4.60;100.00
31062;BME280;17724;53.546;9.974;2023-02-15T00:23:51;103050.72;;;4.80;100.00
31062;BME280;17724;53.546;9.974;2023-02-15T00:27:51;103043.00;;;4.59;100.00
31062;BME280;17724;53.546;9.974;2023-02-15T00:31:52;103039.31;;;4.76;100.00
31062;BME280;17724;53.546;9.974;2023-02-15T00:36:00;103033.06;;;5.08;100.00
31062;BME280;17724;53.546;9.974;2023-02-15T00:40:01;103031.34;;;4.91;100.00
31062;BME280;17724;53.546;9.974;2023-02-15T00:44:01;103035.03;;;4.82;100.00
31062;BME280;17724;53.546;9.974;2023-02-15T00:48:03;103028.41;;;4.42;100.00
31062;BME280;17724;53.546;9.974;2023-02-15T00:52:04;103018.94;;;4.54;100.00
31062;BME280;17724;53.546;9.974;2023-02-15T00:56:04;103024.44;;;4.70;100.00
31062;BME280;17724;53.546;9.974;2023-02-15T01:00:05;103029.38;;;4.59;100.00
31062;BME280;17724;53.546;9.974;2023-02-15T01:04:06;103022.38;;;4.64;100.00
31062;BME280;17724;53.546;9.974;2023-02-15T01:08:07;103019.16;;;4.69;100.00
31062;BME280;17724;53.546;9.974;2023-02-15T01:12:07;103016.97;;;4.73;100.00
31062;BME280;17724;53.546;9.974;2023-02-15T01:16:08;103014.59;;;4.78;100.00
31062;BME280;17724;53.546;9.974;2023-02-15T01:20:09;103006.59;;;4.76;100.00
31062;BME280;17724;53.546;9.974;2023-02-15T01:24:14;103000.09;;;4.77;100.00
31062;BME280;17724;53.546;9.974;2023-02-15T01:28:14;103001.16;;;4.92;100.00
31062;BME280;17724;53.546;9.974;2023-02-15T01:32:15;102986.66;;;4.84;100.00
31062;BME280;17724;53.546;9.974;2023-02-15T01:36:17;102988.16;;;4.70;100.00
31062;BME280;17724;53.546;9.974;2023-02-15T01:40:18;102982.56;;;4.80;100.00
31062;BME280;17724;53.546;9.974;2023-02-15T01:44:48;102985.31;;;4.88;100.00
31062;BME280;17724;53.546;9.974;2023-02-15T01:48:54;102978.50;;;4.84;100.00
31062;BME280;17724;53.546;9.974;2023-02-15T01:57:22;102975.88;;;4.66;100.00
31062;BME280;17724;53.546;9.974;2023-02-15T02:01:27;102968.41;;;4.68;100.00
31062;BME280;17724;53.546;9.974;2023-02-15T02:05:30;102965.56;;;5.02;100.00
31062;BME280;17724;53.546;9.974;2023-02-15T02:09:31;102962.47;;;4.89;100.00
31062;BME280;17724;53.546;9.974;2023-02-15T02:13:32;102953.38;;;4.56;100.00
31062;BME280;17724;53.546;9.974;2023-02-15T02:26:55;102935.50;;;4.69;100.00
31062;BME280;17724;53.546;9.974;2023-02-15T02:39:28;102924.88;;;4.42;100.00
31062;BME280;17724;53.546;9.974;2023-02-15T02:43:44;102907.41;;;4.69;100.00
31062;BME280;17724;53.546;9.974;2023-02-15T02:47:53;102916.44;;;4.78;100.00
31062;BME280;17724;53.546;9.974;2023-02-15T02:56:46;102912.22;;;4.83;100.00
31062;BME280;17724;53.546;9.974;2023-02-15T03:01:13;102900.94;;;4.78;100.00
31062;BME280;17724;53.546;9.974;2023-02-15T03:05:19;102904.44;;;4.38;100.00
31062;BME280;17724;53.546;9.974;2023-02-15T03:09:25;102897.50;;;4.52;100.00
31062;BME280;17724;53.546;9.974;2023-02-15T03:13:35;102905.19;;;4.81;100.00
31062;BME280;17724;53.546;9.974;2023-02-15T03:17:40;102901.91;;;4.53;100.00
31062;BME280;17724;53.546;9.974;2023-02-15T03:21:51;102900.72;;;4.47;100.00
31062;BME280;17724;53.546;9.974;2023-02-15T03:26:05;102901.19;;;4.34;100.00
31062;BME280;17724;53.546;9.974;2023-02-15T03:30:11;102897.28;;;4.37;100.00
31062;BME280;17724;53.546;9.974;2023-02-15T03:34:14;102875.19;;;4.56;100.00
31062;BME280;17724;53.546;9.974;2023-02-15T03:38:20;102890.16;;;4.52;100.00
31062;BME280;17724;53.546;9.974;2023-02-15T03:42:31;102884.22;;;4.65;100.00
31062;BME280;17724;53.546;9.974;2023-02-15T03:46:46;102870.59;;;4.57;100.00
31062;BME280;17724;53.546;9.974;2023-02-15T03:50:48;102870.31;;;4.17;100.00
31062;BME280;17724;53.546;9.974;2023-02-15T03:55:09;102870.56;;;4.49;100.00
31062;BME280;17724;53.546;9.974;2023-02-15T03:59:09;102864.78;;;4.52;100.00
31062;BME280;17724;53.546;9.974;2023-02-15T04:03:36;102862.94;;;4.52;100.00
31062;BME280;17724;53.546;9.974;2023-02-15T04:07:39;102870.03;;;4.37;100.00
31062;BME280;17724;53.546;9.974;2023-02-15T04:11:39;102861.16;;;4.35;100.00
31062;BME280;17724;53.546;9.974;2023-02-15T04:15:40;102848.44;;;4.52;100.00
31062;BME280;17724;53.546;9.974;2023-02-15T04:19:59;102850.44;;;4.33;100.00
31062;BME280;17724;53.546;9.974;2023-02-15T04:24:18;102856.56;;;4.27;100.00
31062;BME280;17724;53.546;9.974;2023-02-15T04:28:37;102855.19;;;4.15;100.00
31062;BME280;17724;53.546;9.974;2023-02-15T04:32:38;102856.72;;;4.26;100.00
31062;BME280;17724;53.546;9.974;2023-02-15T04:36:39;102847.53;;;4.35;100.00
31062;BME280;17724;53.546;9.974;2023-02-15T04:40:40;102849.56;;;4.16;100.00
31062;BME280;17724;53.546;9.974;2023-02-15T04:44:40;102850.25;;;4.35;100.00
31062;BME280;17724;53.546;9.974;2023-02-15T04:48:41;102834.44;;;4.47;100.00
31062;BME280;17724;53.546;9.974;2023-02-15T04:52:41;102829.88;;;4.47;100.00
31062;BME280;17724;53.546;9.974;2023-02-15T04:56:42;102832.38;;;4.24;100.00
31062;BME280;17724;53.546;9.974;2023-02-15T05:00:42;102833.06;;;4.34;100.00
31062;BME280;17724;53.546;9.974;2023-02-15T05:04:43;102827.47;;;4.36;100.00
31062;BME280;17724;53.546;9.974;2023-02-15T05:08:43;102833.50;;;3.97;100.00
31062;BME280;17724;53.546;9.974;2023-02-15T05:12:44;102823.94;;;3.93;100.00
31062;BME280;17724;53.546;9.974;2023-02-15T05:16:44;102803.28;;;3.74;100.00
31062;BME280;17724;53.546;9.974;2023-02-15T05:20:45;102814.88;;;3.76;100.00
31062;BME280;17724;53.546;9.974;2023-02-15T05:24:45;102816.44;;;3.87;100.00
31062;BME280;17724;53.546;9.974;2023-02-15T05:29:05;102812.09;;;3.60;100.00
31062;BME280;17724;53.546;9.974;2023-02-15T05:33:06;102821.56;;;3.98;100.00
31062;BME280;17724;53.546;9.974;2023-02-15T05:37:07;102811.91;;;4.04;100.00
31062;BME280;17724;53.546;9.974;2023-02-15T05:41:09;102814.63;;;3.95;100.00
31062;BME280;17724;53.546;9.974;2023-02-15T05:45:10;102789.56;;;3.84;100.00
31062;BME280;17724;53.546;9.974;2023-02-15T05:49:11;102798.66;;;3.66;100.00
31062;BME280;17724;53.546;9.974;2023-02-15T05:53:11;102784.31;;;3.99;100.00
31062;BME280;17724;53.546;9.974;2023-02-15T05:57:12;102786.88;;;3.50;100.00
31062;BME280;17724;53.546;9.974;2023-02-15T06:01:17;102789.38;;;3.43;100.00
31062;BME280;17724;53.546;9.974;2023-02-15T06:05:17;102787.53;;;3.43;100.00
31062;BME280;17724;53.546;9.974;2023-02-15T06:09:18;102784.50;;;3.55;100.00
31062;BME280;17724;53.546;9.974;2023-02-15T06:13:19;102785.22;;;3.65;100.00
31062;BME280;17724;53.546;9.974;2023-02-15T06:17:20;102794.94;;;3.67;100.00
31062;BME280;17724;53.546;9.974;2023-02-15T06:21:21;102791.69;;;3.64;100.00
31062;BME280;17724;53.546;9.974;2023-02-15T06:25:22;102791.06;;;3.78;100.00
31062;BME280;17724;53.546;9.974;2023-02-15T06:29:23;102797.56;;;3.85;100.00
31062;BME280;17724;53.546;9.974;2023-02-15T06:33:23;102811.97;;;3.78;100.00
31062;BME280;17724;53.546;9.974;2023-02-15T06:37:24;102814.22;;;3.90;100.00
31062;BME280;17724;53.546;9.974;2023-02-15T06:41:24;102812.75;;;3.96;100.00
31062;BME280;17724;53.546;9.974;2023-02-15T06:45:25;102810.84;;;3.88;100.00
31062;BME280;17724;53.546;9.974;2023-02-15T06:49:25;102797.88;;;3.82;100.00
31062;BME280;17724;53.546;9.974;2023-02-15T06:53:26;102807.97;;;3.98;100.00
31062;BME280;17724;53.546;9.974;2023-02-15T06:57:26;102801.69;;;4.06;100.00
31062;BME280;17724;53.546;9.974;2023-02-15T07:01:27;102791.44;;;3.83;100.00
31062;BME280;17724;53.546;9.974;2023-02-15T07:05:27;102783.69;;;3.62;100.00
31062;BME280;17724;53.546;9.974;2023-02-15T07:09:30;102791.69;;;3.64;100.00
31062;BME280;17724;53.546;9.974;2023-02-15T07:13:31;102794.53;;;3.97;100.00
31062;BME280;17724;53.546;9.974;2023-02-15T07:17:31;102797.56;;;3.85;100.00
31062;BME280;17724;53.546;9.974;2023-02-15T07:21:33;102779.78;;;3.65;100.00
31062;BME280;17724;53.546;9.974;2023-02-15T07:25:34;102775.97;;;3.50;100.00
31062;BME280;17724;53.546;9.974;2023-02-15T07:29:35;102779.81;;;3.73;100.00
31062;BME280;17724;53.546;9.974;2023-02-15T07:33:35;102774.22;;;3.83;100.00
31062;BME280;17724;53.546;9.974;2023-02-15T07:37:36;102768.09;;;3.73;100.00
31062;BME280;17724;53.546;9.974;2023-02-15T07:41:36;102764.06;;;3.93;100.00
31062;BME280;17724;53.546;9.974;2023-02-15T07:45:44;102766.47;;;4.04;100.00
31062;BME280;17724;53.546;9.974;2023-02-15T07:49:45;102768.66;;;3.92;100.00
31062;BME280;17724;53.546;9.974;2023-02-15T07:53:45;102752.66;;;3.98;100.00
31062;BME280;17724;53.546;9.974;2023-02-15T07:57:49;102757.16;;;3.64;100.00
31062;BME280;17724;53.546;9.974;2023-02-15T08:01:50;102743.41;;;3.24;100.00
31062;BME280;17724;53.546;9.974;2023-02-15T08:05:51;102754.38;;;3.48;100.00
31062;BME280;17724;53.546;9.974;2023-02-15T08:09:51;102754.72;;;3.45;100.00
31062;BME280;17724;53.546;9.974;2023-02-15T08:17:54;102751.22;;;3.27;100.00
31062;BME280;17724;53.546;9.974;2023-02-15T08:21:57;102742.28;;;3.42;100.00
31062;BME280;17724;53.546;9.974;2023-02-15T08:25:59;102735.22;;;3.66;100.00
31062;BME280;17724;53.546;9.974;2023-02-15T08:30:00;102745.06;;;3.16;100.00
31062;BME280;17724;53.546;9.974;2023-02-15T08:34:00;102741.44;;;3.42;100.00
31062;BME280;17724;53.546;9.974;2023-02-15T08:38:01;102741.00;;;2.94;100.00
31062;BME280;17724;53.546;9.974;2023-02-15T08:42:02;102743.50;;;2.80;100.00
31062;BME280;17724;53.546;9.974;2023-02-15T08:46:02;102751.78;;;2.78;100.00
31062;BME280;17724;53.546;9.974;2023-02-15T08:50:03;102740.97;;;3.12;100.00
31062;BME280;17724;53.546;9.974;2023-02-15T08:54:07;102734.59;;;3.30;100.00
31062;BME280;17724;53.546;9.974;2023-02-15T08:58:09;102735.44;;;3.30;100.00
31062;BME280;17724;53.546;9.974;2023-02-15T09:02:10;102737.50;;;3.36;100.00
31062;BME280;17724;53.546;9.974;2023-02-15T09:06:11;102743.22;;;3.59;100.00
31062;BME280;17724;53.546;9.974;2023-02-15T09:10:11;102734.28;;;3.83;100.00
31062;BME280;17724;53.546;9.974;2023-02-15T09:14:14;102732.72;;;3.73;100.00
31062;BME280;17724;53.546;9.974;2023-02-15T09:18:15;102725.75;;;3.86;100.00
31062;BME280;17724;53.546;9.974;2023-02-15T09:22:17;102726.50;;;3.54;100.00
31062;BME280;17724;53.546;9.974;2023-02-15T09:26:20;102723.28;;;3.59;100.00
31062;BME280;17724;53.546;9.974;2023-02-15T09:30:21;102717.38;;;3.21;100.00
31062;BME280;17724;53.546;9.974;2023-02-15T09:34:22;102714.81;;;3.62;100.00
31062;BME280;17724;53.546;9.974;2023-02-15T09:38:23;102714.56;;;3.39;100.00
31062;BME280;17724;53.546;9.974;2023-02-15T09:51:32;102714.03;;;3.86;100.00
31062;BME280;17724;53.546;9.974;2023-02-15T09:55:55;102717.03;;;3.75;100.00
31062;BME280;17724;53.546;9.974;2023-02-15T10:00:30;102711.28;;;3.78;100.00
31062;BME280;17724;53.546;9.974;2023-02-15T10:04:58;102714.69;;;3.80;100.00
31062;BME280;17724;53.546;9.974;2023-02-15T10:13:31;102709.31;;;4.12;100.00
31062;BME280;17724;53.546;9.974;2023-02-15T10:27:10;102722.06;;;4.12;100.00
31062;BME280;17724;53.546;9.974;2023-02-15T10:31:34;102721.03;;;4.05;100.00
31062;BME280;17724;53.546;9.974;2023-02-15T10:40:13;102729.91;;;4.39;100.00
31062;BME280;17724;53.546;9.974;2023-02-15T10:48:38;102723.25;;;4.26;100.00
31062;BME280;17724;53.546;9.974;2023-02-15T10:58:51;102712.19;;;4.68;100.00
31062;BME280;17724;53.546;9.974;2023-02-15T11:07:40;102686.78;;;4.76;100.00
31062;BME280;17724;53.546;9.974;2023-02-15T11:12:45;102695.19;;;5.13;100.00
31062;BME280;17724;53.546;9.974;2023-02-15T11:22:39;102688.84;;;4.65;100.00
31062;BME280;17724;53.546;9.974;2023-02-15T11:31:26;102685.53;;;4.94;100.00
31062;BME280;17724;53.546;9.974;2023-02-15T11:35:58;102690.28;;;5.01;100.00
31062;BME280;17724;53.546;9.974;2023-02-15T11:40:02;102669.94;;;5.19;100.00
31062;BME280;17724;53.546;9.974;2023-02-15T11:49:30;102647.88;;;5.60;100.00
31062;BME280;17724;53.546;9.974;2023-02-15T11:54:43;102642.13;;;5.55;100.00
31062;BME280;17724;53.546;9.974;2023-02-15T11:59:45;102632.75;;;5.50;100.00
31062;BME280;17724;53.546;9.974;2023-02-15T12:04:13;102639.91;;;5.59;100.00
31062;BME280;17724;53.546;9.974;2023-02-15T12:08:40;102611.44;;;5.22;100.00
31062;BME280;17724;53.546;9.974;2023-02-15T12:13:16;102613.50;;;5.51;100.00
31062;BME280;17724;53.546;9.974;2023-02-15T12:26:35;102602.13;;;5.71;100.00
31062;BME280;17724;53.546;9.974;2023-02-15T12:30:42;102591.91;;;5.64;100.00
31062;BME280;17724;53.546;9.974;2023-02-15T12:34:46;102587.84;;;5.83;100.00
31062;BME280;17724;53.546;9.974;2023-02-15T12:39:53;102586.66;;;5.78;100.00
31062;BME280;17724;53.546;9.974;2023-02-15T12:48:32;102574.19;;;5.83;100.00
31062;BME280;17724;53.546;9.974;2023-02-15T12:52:32;102580.50;;;6.07;100.00
31062;BME280;17724;53.546;9.974;2023-02-15T12:56:33;102561.25;;;6.00;100.00
31062;BME280;17724;53.546;9.974;2023-02-15T13:00:33;102568.50;;;5.93;100.00
31062;BME280;17724;53.546;9.974;2023-02-15T13:04:35;102561.47;;;6.13;100.00
31062;BME280;17724;53.546;9.974;2023-02-15T13:08:47;102561.22;;;6.38;100.00
31062;BME280;17724;53.546;9.974;2023-02-15T13:12:48;102559.72;;;6.50;100.00
31062;BME280;17724;53.546;9.974;2023-02-15T13:16:57;102544.44;;;6.71;100.00
31062;BME280;17724;53.546;9.974;2023-02-15T13:21:10;102539.63;;;6.58;100.00
31062;BME280;17724;53.546;9.974;2023-02-15T13:25:19;102541.16;;;6.60;100.00
31062;BME280;17724;53.546;9.974;2023-02-15T13:29:24;102529.09;;;6.40;100.00
31062;BME280;17724;53.546;9.974;2023-02-15T13:33:34;102538.88;;;6.49;100.00
31062;BME280;17724;53.546;9.974;2023-02-15T14:11:57;102503.78;;;7.89;100.00
31062;BME280;17724;53.546;9.974;2023-02-15T14:30:02;102501.00;;;8.11;100.00
31062;BME280;17724;53.546;9.974;2023-02-15T14:34:03;102492.47;;;8.27;100.00
31062;BME280;17724;53.546;9.974;2023-02-15T14:50:59;102477.75;;;8.35;100.00
31062;BME280;17724;53.546;9.974;2023-02-15T14:55:00;102477.75;;;8.35;100.00
31062;BME280;17724;53.546;9.974;2023-02-15T14:59:21;102475.94;;;8.42;100.00
31062;BME280;17724;53.546;9.974;2023-02-15T15:03:23;102477.66;;;8.50;100.00
31062;BME280;17724;53.546;9.974;2023-02-15T15:07:28;102483.19;;;8.63;100.00
31062;BME280;17724;53.546;9.974;2023-02-15T15:11:43;102479.34;;;8.51;100.00
31062;BME280;17724;53.546;9.974;2023-02-15T15:15:45;102467.25;;;8.45;100.00
31062;BME280;17724;53.546;9.974;2023-02-15T15:23:47;102468.84;;;8.68;100.00
31062;BME280;17724;53.546;9.974;2023-02-15T15:27:51;102462.41;;;8.41;100.00
31062;BME280;17724;53.546;9.974;2023-02-15T15:31:55;102471.59;;;8.68;100.00
31062;BME280;17724;53.546;9.974;2023-02-15T15:36:28;102469.44;;;8.50;100.00
31062;BME280;17724;53.546;9.974;2023-02-15T15:40:42;102465.13;;;8.41;100.00
31062;BME280;17724;53.546;9.974;2023-02-15T15:49:14;102457.06;;;8.32;100.00
31062;BME280;17724;53.546;9.974;2023-02-15T15:53:20;102446.47;;;8.23;100.00
31062;BME280;17724;53.546;9.974;2023-02-15T15:57:33;102456.59;;;8.22;100.00
31062;BME280;17724;53.546;9.974;2023-02-15T16:01:38;102457.59;;;8.14;100.00
31062;BME280;17724;53.546;9.974;2023-02-15T16:05:40;102444.50;;;8.10;100.00
31062;BME280;17724;53.546;9.974;2023-02-15T16:09:41;102433.56;;;8.17;100.00
31062;BME280;17724;53.546;9.974;2023-02-15T16:13:53;102436.19;;;7.97;100.00
31062;BME280;17724;53.546;9.974;2023-02-15T16:17:56;102441.66;;;7.90;100.00
31062;BME280;17724;53.546;9.974;2023-02-15T16:21:58;102433.16;;;7.85;100.00
31062;BME280;17724;53.546;9.974;2023-02-15T16:26:15;102428.88;;;7.76;100.00
31062;BME280;17724;53.546;9.974;2023-02-15T16:30:34;102425.91;;;7.71;100.00
31062;BME280;17724;53.546;9.974;2023-02-15T16:34:35;102418.88;;;7.61;100.00
31062;BME280;17724;53.546;9.974;2023-02-15T16:42:42;102434.00;;;7.85;100.00
31062;BME280;17724;53.546;9.974;2023-02-15T16:46:49;102426.00;;;7.56;100.00
31062;BME280;17724;53.546;9.974;2023-02-15T16:50:54;102412.69;;;7.03;100.00
31062;BME280;17724;53.546;9.974;2023-02-15T16:55:02;102404.09;;;7.06;100.00
31062;BME280;17724;53.546;9.974;2023-02-15T16:59:03;102399.34;;;6.94;100.00
31062;BME280;17724;53.546;9.974;2023-02-15T17:07:18;102396.00;;;7.20;100.00
31062;BME280;17724;53.546;9.974;2023-02-15T17:11:21;102390.22;;;7.08;100.00
31062;BME280;17724;53.546;9.974;2023-02-15T17:19:31;102403.69;;;6.88;100.00
31062;BME280;17724;53.546;9.974;2023-02-15T17:23:35;102406.03;;;7.12;100.00
31062;BME280;17724;53.546;9.974;2023-02-15T17:27:40;102397.19;;;6.89;100.00
31062;BME280;17724;53.546;9.974;2023-02-15T17:31:47;102400.16;;;6.94;100.00
31062;BME280;17724;53.546;9.974;2023-02-15T17:40:22;102395.63;;;7.01;100.00
31062;BME280;17724;53.546;9.974;2023-02-15T17:44:23;102398.47;;;6.72;100.00
31062;BME280;17724;53.546;9.974;2023-02-15T17:48:30;102402.41;;;6.84;100.00
31062;BME280;17724;53.546;9.974;2023-02-15T17:52:31;102415.16;;;6.77;100.00
31062;BME280;17724;53.546;9.974;2023-02-15T17:56:37;102428.06;;;7.04;100.00
31062;BME280;17724;53.546;9.974;2023-02-15T18:00:41;102433.88;;;6.95;100.00
31062;BME280;17724;53.546;9.974;2023-02-15T18:05:00;102434.72;;;6.95;100.00
31062;BME280;17724;53.546;9.974;2023-02-15T18:09:21;102427.09;;;6.90;100.00
31062;BME280;17724;53.546;9.974;2023-02-15T18:13:41;102397.13;;;6.46;100.00
31062;BME280;17724;53.546;9.974;2023-02-15T18:17:44;102401.53;;;5.96;100.00
31062;BME280;17724;53.546;9.974;2023-02-15T18:21:45;102410.75;;;6.25;100.00
31062;BME280;17724;53.546;9.974;2023-02-15T18:25:46;102408.09;;;6.31;100.00
31062;BME280;17724;53.546;9.974;2023-02-15T18:29:46;102389.28;;;5.92;100.00
31062;BME280;17724;53.546;9.974;2023-02-15T18:33:52;102377.75;;;5.52;100.00
31062;BME280;17724;53.546;9.974;2023-02-15T18:37:54;102383.97;;;5.61;100.00
31062;BME280;17724;53.546;9.974;2023-02-15T18:41:55;102386.66;;;5.99;100.00
31062;BME280;17724;53.546;9.974;2023-02-15T18:45:56;102387.38;;;6.22;100.00
31062;BME280;17724;53.546;9.974;2023-02-15T18:49:57;102383.69;;;6.30;100.00
31062;BME280;17724;53.546;9.974;2023-02-15T18:53:58;102380.00;;;6.37;100.00
31062;BME280;17724;53.546;9.974;2023-02-15T18:58:00;102370.44;;;6.27;100.00
31062;BME280;17724;53.546;9.974;2023-02-15T19:02:00;102370.38;;;6.41;100.00
31062;BME280;17724;53.546;9.974;2023-02-15T19:06:01;102369.63;;;6.48;100.00
31062;BME280;17724;53.546;9.974;2023-02-15T19:10:05;102365.50;;;6.37;100.00
31062;BME280;17724;53.546;9.974;2023-02-15T19:14:22;102373.72;;;6.22;100.00
31062;BME280;17724;53.546;9.974;2023-02-15T19:18:23;102376.63;;;6.35;100.00
31062;BME280;17724;53.546;9.974;2023-02-15T19:22:24;102375.53;;;6.15;100.00
31062;BME280;17724;53.546;9.974;2023-02-15T19:26:37;102374.69;;;6.14;100.00
31062;BME280;17724;53.546;9.974;2023-02-15T19:30:40;102355.47;;;5.93;100.00
31062;BME280;17724;53.546;9.974;2023-02-15T19:34:41;102365.25;;;5.87;100.00
31062;BME280;17724;53.546;9.974;2023-02-15T19:38:42;102349.34;;;5.61;100.00
31062;BME280;17724;53.546;9.974;2023-02-15T19:42:43;102351.16;;;5.16;100.00
31062;BME280;17724;53.546;9.974;2023-02-15T19:46:44;102349.72;;;5.06;100.00
31062;BME280;17724;53.546;9.974;2023-02-15T19:50:45;102349.75;;;4.83;100.00
31062;BME280;17724;53.546;9.974;2023-02-15T19:54:47;102351.25;;;4.85;100.00
31062;BME280;17724;53.546;9.974;2023-02-15T19:58:48;102358.72;;;5.29;100.00
31062;BME280;17724;53.546;9.974;2023-02-15T20:02:49;102372.84;;;5.48;100.00
31062;BME280;17724;53.546;9.974;2023-02-15T20:06:50;102375.75;;;5.46;100.00
31062;BME280;17724;53.546;9.974;2023-02-15T20:10:52;102365.16;;;5.51;100.00
31062;BME280;17724;53.546;9.974;2023-02-15T20:14:53;102360.81;;;5.57;100.00
31062;BME280;17724;53.546;9.974;2023-02-15T20:18:53;102354.31;;;5.58;100.00
31062;BME280;17724;53.546;9.974;2023-02-15T20:22:54;102355.47;;;5.63;100.00
31062;BME280;17724;53.546;9.974;2023-02-15T20:26:54;102352.44;;;5.73;100.00
31062;BME280;17724;53.546;9.974;2023-02-15T20:30:56;102339.56;;;5.67;100.00
31062;BME280;17724;53.546;9.974;2023-02-15T20:34:56;102334.28;;;4.98;100.00
31062;BME280;17724;53.546;9.974;2023-02-15T20:39:00;102324.28;;;5.28;100.00
31062;BME280;17724;53.546;9.974;2023-02-15T20:43:02;102334.19;;;5.74;100.00
31062;BME280;17724;53.546;9.974;2023-02-15T20:47:02;102335.41;;;5.86;100.00
31062;BME280;17724;53.546;9.974;2023-02-15T20:51:03;102337.00;;;5.80;100.00
31062;BME280;17724;53.546;9.974;2023-02-15T20:55:11;102327.34;;;5.63;100.00
31062;BME280;17724;53.546;9.974;2023-02-15T20:59:24;102323.94;;;5.76;100.00
31062;BME280;17724;53.546;9.974;2023-02-15T21:03:26;102325.44;;;5.49;100.00
31062;BME280;17724;53.546;9.974;2023-02-15T21:07:29;102331.47;;;5.59;100.00
31062;BME280;17724;53.546;9.974;2023-02-15T21:11:30;102323.94;;;5.76;100.00
31062;BME280;17724;53.546;9.974;2023-02-15T21:15:33;102333.25;;;5.66;100.00
31062;BME280;17724;53.546;9.974;2023-02-15T21:19:34;102324.88;;;5.53;100.00
31062;BME280;17724;53.546;9.974;2023-02-15T21:23:37;102332.97;;;5.47;100.00
31062;BME280;17724;53.546;9.974;2023-02-15T21:27:38;102319.59;;;5.52;100.00
31062;BME280;17724;53.546;9.974;2023-02-15T21:31:38;102315.16;;;5.65;100.00
31062;BME280;17724;53.546;9.974;2023-02-15T21:35:40;102310.16;;;5.54;100.00
31062;BME280;17724;53.546;9.974;2023-02-15T21:39:41;102308.28;;;5.25;100.00
31062;BME280;17724;53.546;9.974;2023-02-15T21:43:41;102310.06;;;5.18;100.00
31062;BME280;17724;53.546;9.974;2023-02-15T21:48:00;102308.88;;;4.98;100.00
31062;BME280;17724;53.546;9.974;2023-02-15T21:52:01;102317.19;;;5.04;100.00
31062;BME280;17724;53.546;9.974;2023-02-15T21:56:13;102313.38;;;4.90;100.00
31062;BME280;17724;53.546;9.974;2023-02-15T22:00:20;102297.22;;;4.66;100.00
31062;BME280;17724;53.546;9.974;2023-02-15T22:04:26;102319.63;;;4.53;100.00
31062;BME280;17724;53.546;9.974;2023-02-15T22:08:27;102318.59;;;4.77;100.00
31062;BME280;17724;53.546;9.974;2023-02-15T22:12:28;102305.03;;;4.69;100.00
31062;BME280;17724;53.546;9.974;2023-02-15T22:16:28;102310.78;;;4.74;100.00
31062;BME280;17724;53.546;9.974;2023-02-15T22:20:29;102309.91;;;4.59;100.00
31062;BME280;17724;53.546;9.974;2023-02-15T22:24:30;102306.44;;;4.65;100.00
31062;BME280;17724;53.546;9.974;2023-02-15T22:28:36;102303.97;;;4.55;100.00
31062;BME280;17724;53.546;9.974;2023-02-15T22:32:36;102300.28;;;4.48;100.00
31062;BME280;17724;53.546;9.974;2023-02-15T22:36:37;102303.28;;;4.30;100.00
31062;BME280;17724;53.546;9.974;2023-02-15T22:40:38;102304.75;;;4.41;100.00
31062;BME280;17724;53.546;9.974;2023-02-15T22:44:39;102294.47;;;4.51;100.00
31062;BME280;17724;53.546;9.974;2023-02-15T22:48:41;102296.81;;;4.54;100.00
31062;BME280;17724;53.546;9.974;2023-02-15T22:52:42;102297.63;;;4.63;100.00
31062;BME280;17724;53.546;9.974;2023-02-15T22:56:48;102294.06;;;4.77;100.00
31062;BME280;17724;53.546;9.974;2023-02-15T23:00:50;102284.09;;;4.69;100.00
31062;BME280;17724;53.546;9.974;2023-02-15T23:04:50;102275.69;;;4.79;100.00
31062;BME280;17724;53.546;9.974;2023-02-15T23:08:52;102279.34;;;4.86;100.00
31062;BME280;17724;53.546;9.974;2023-02-15T23:12:55;102277.09;;;4.90;100.00
31062;BME280;17724;53.546;9.974;2023-02-15T23:17:14;102273.16;;;4.92;100.00
31062;BME280;17724;53.546;9.974;2023-02-15T23:21:22;102261.59;;;5.05;100.00
31062;BME280;17724;53.546;9.974;2023-02-15T23:25:24;102262.09;;;5.09;100.00
31062;BME280;17724;53.546;9.974;2023-02-15T23:29:27;102258.69;;;5.22;100.00
31062;BME280;17724;53.546;9.974;2023-02-15T23:33:31;102264.94;;;5.15;100.00
31062;BME280;17724;53.546;9.974;2023-02-15T23:37:32;102256.91;;;4.99;100.00
31062;BME280;17724;53.546;9.974;2023-02-15T23:41:33;102270.53;;;4.99;100.00
31062;BME280;17724;53.546;9.974;2023-02-15T23:45:35;102261.31;;;5.00;100.00
31062;BME280;17724;53.546;9.974;2023-02-15T23:49:37;102270.53;;;4.99;100.00
31062;BME280;17724;53.546;9.974;2023-02-15T23:53:37;102263.09;;;4.93;100.00
31062;BME280;17724;53.546;9.974;2023-02-15T23:57:42;102256.44;;;4.96;100.00
